createdAt,value
2017-12-30T00:00:55.040Z,5.6
2017-12-30T00:01:55.319Z,5.6
2017-12-30T00:02:55.318Z,5.61
2017-12-30T00:03:55.389Z,5.61
2017-12-30T00:04:55.395Z,5.6
2017-12-30T00:05:55.505Z,5.61
2017-12-30T00:06:54.572Z,5.61
2017-12-30T00:07:55.556Z,5.61
2017-12-30T00:08:55.038Z,5.62
2017-12-30T00:09:55.065Z,5.62
2017-12-30T00:10:55.247Z,5.61
2017-12-30T00:11:55.575Z,5.61
2017-12-30T00:12:54.949Z,5.61
2017-12-30T00:13:55.032Z,5.6
2017-12-30T00:14:55.076Z,5.6
2017-12-30T00:15:55.076Z,5.6
2017-12-30T00:16:55.386Z,5.59
2017-12-30T00:17:55.591Z,5.59
2017-12-30T00:18:55.676Z,5.57
2017-12-30T00:19:58.432Z,5.57
2017-12-30T00:20:58.250Z,5.56
2017-12-30T00:21:57.619Z,5.55
2017-12-30T00:22:55.841Z,5.55
2017-12-30T00:23:55.329Z,5.54
2017-12-30T00:24:55.957Z,5.54
2017-12-30T00:25:56.632Z,5.55
2017-12-30T00:26:55.414Z,5.52
2017-12-30T00:27:55.542Z,5.52
2017-12-30T00:28:55.717Z,5.51
2017-12-30T00:29:56.047Z,5.5
2017-12-30T00:30:56.874Z,5.49
2017-12-30T00:31:55.853Z,5.47
2017-12-30T00:32:55.970Z,5.47
2017-12-30T00:33:57.770Z,5.46
2017-12-30T00:35:00.782Z,5.44
2017-12-30T00:35:56.419Z,5.46
2017-12-30T00:36:56.566Z,5.44
2017-12-30T00:37:55.330Z,5.45
2017-12-30T00:38:55.321Z,5.44
2017-12-30T00:39:55.353Z,5.45
2017-12-30T00:40:56.720Z,5.45
2017-12-30T00:41:56.261Z,5.45
2017-12-30T00:42:56.208Z,5.48
2017-12-30T00:43:55.952Z,5.48
2017-12-30T00:44:55.372Z,5.49
2017-12-30T00:45:57.009Z,5.48
2017-12-30T00:46:54.984Z,5.5
2017-12-30T00:47:55.385Z,5.53
2017-12-30T00:48:55.518Z,5.52
2017-12-30T00:49:55.527Z,5.53
2017-12-30T00:50:55.559Z,5.55
2017-12-30T00:51:54.538Z,5.56
2017-12-30T00:52:55.543Z,5.57
2017-12-30T00:53:56.277Z,5.59
2017-12-30T00:54:57.848Z,5.6
2017-12-30T00:55:55.073Z,5.62
2017-12-30T00:56:57.189Z,5.62
2017-12-30T00:57:55.198Z,5.62
2017-12-30T00:58:55.149Z,5.63
2017-12-30T00:59:55.180Z,5.64
2017-12-30T01:00:55.087Z,5.65
2017-12-30T01:01:55.219Z,5.65
2017-12-30T01:02:55.381Z,5.65
2017-12-30T01:03:55.817Z,5.65
2017-12-30T01:04:54.830Z,5.65
2017-12-30T01:05:54.877Z,5.67
2017-12-30T01:06:55.012Z,5.67
2017-12-30T01:07:54.834Z,5.68
2017-12-30T01:08:54.900Z,5.68
2017-12-30T01:09:54.941Z,5.67
2017-12-30T01:10:55.015Z,5.68
2017-12-30T01:11:54.999Z,5.67
2017-12-30T01:12:54.943Z,5.67
2017-12-30T01:13:54.830Z,5.67
2017-12-30T01:14:54.960Z,5.68
2017-12-30T01:15:54.907Z,5.68
2017-12-30T01:16:54.964Z,5.68
2017-12-30T01:17:54.970Z,5.69
2017-12-30T01:18:55.123Z,5.67
2017-12-30T01:19:55.180Z,5.69
2017-12-30T01:20:55.242Z,5.68
2017-12-30T01:21:55.211Z,5.68
2017-12-30T01:22:55.450Z,5.68
2017-12-30T01:23:55.585Z,5.69
2017-12-30T01:24:55.653Z,5.69
2017-12-30T01:25:55.612Z,5.69
2017-12-30T01:26:55.778Z,5.69
2017-12-30T01:27:55.826Z,5.69
2017-12-30T01:28:55.978Z,5.7
2017-12-30T01:29:55.091Z,5.69
2017-12-30T01:30:55.067Z,5.7
2017-12-30T01:31:55.070Z,5.69
2017-12-30T01:32:54.972Z,5.7
2017-12-30T01:33:54.901Z,5.69
2017-12-30T01:34:55.852Z,5.68
2017-12-30T01:35:54.891Z,5.69
2017-12-30T01:36:55.881Z,5.69
2017-12-30T01:37:54.913Z,5.68
2017-12-30T01:38:54.976Z,5.69
2017-12-30T01:39:55.111Z,5.68
2017-12-30T01:40:55.151Z,5.69
2017-12-30T01:41:55.444Z,5.69
2017-12-30T01:42:55.421Z,5.69
2017-12-30T01:43:55.409Z,5.69
2017-12-30T01:44:55.495Z,5.69
2017-12-30T01:45:55.792Z,5.7
2017-12-30T01:46:55.809Z,5.69
2017-12-30T01:49:03.520Z,5.7
2017-12-30T01:49:55.591Z,5.69
2017-12-30T01:50:54.817Z,5.69
2017-12-30T01:51:55.749Z,5.7
2017-12-30T01:52:55.674Z,5.7
2017-12-30T01:53:55.420Z,5.7
2017-12-30T01:54:55.600Z,5.71
2017-12-30T01:55:55.451Z,5.69
2017-12-30T01:56:55.253Z,5.69
2017-12-30T01:57:55.181Z,5.69
2017-12-30T01:58:55.257Z,5.7
2017-12-30T02:02:00.556Z,5.71
2017-12-30T02:02:55.662Z,5.69
2017-12-30T02:03:55.513Z,5.7
2017-12-30T02:04:55.469Z,5.69
2017-12-30T02:05:55.517Z,5.69
2017-12-30T02:06:55.420Z,5.69
2017-12-30T02:07:55.354Z,5.68
2017-12-30T02:08:55.107Z,5.67
2017-12-30T02:09:55.016Z,5.66
2017-12-30T02:10:55.029Z,5.66
2017-12-30T02:11:54.936Z,5.65
2017-12-30T02:12:55.046Z,5.64
2017-12-30T02:13:55.143Z,5.65
2017-12-30T02:14:55.313Z,5.64
2017-12-30T02:15:55.330Z,5.64
2017-12-30T02:16:55.602Z,5.65
2017-12-30T02:17:55.838Z,5.65
2017-12-30T02:18:55.492Z,5.65
2017-12-30T02:19:55.433Z,5.64
2017-12-30T02:20:55.350Z,5.64
2017-12-30T02:21:55.436Z,5.65
2017-12-30T02:22:55.508Z,5.64
2017-12-30T02:23:55.309Z,5.64
2017-12-30T02:24:55.190Z,5.64
2017-12-30T02:25:55.001Z,5.63
2017-12-30T02:26:55.171Z,5.65
2017-12-30T02:27:55.189Z,5.65
2017-12-30T02:28:55.163Z,5.66
2017-12-30T02:29:55.252Z,5.66
2017-12-30T02:30:55.835Z,5.65
2017-12-30T02:31:54.887Z,5.66
2017-12-30T02:32:54.760Z,5.66
2017-12-30T02:33:55.983Z,5.66
2017-12-30T02:34:55.155Z,5.67
2017-12-30T02:35:55.248Z,5.68
2017-12-30T02:36:55.390Z,5.67
2017-12-30T02:37:55.410Z,5.69
2017-12-30T02:38:55.296Z,5.69
2017-12-30T02:39:55.235Z,5.69
2017-12-30T02:40:55.309Z,5.7
2017-12-30T02:41:55.254Z,5.7
2017-12-30T02:42:55.195Z,5.7
2017-12-30T02:43:55.137Z,5.7
2017-12-30T02:44:55.097Z,5.69
2017-12-30T02:45:54.929Z,5.69
2017-12-30T02:46:54.903Z,5.69
2017-12-30T02:47:55.148Z,5.67
2017-12-30T02:48:55.306Z,5.68
2017-12-30T02:49:55.233Z,5.67
2017-12-30T02:50:56.175Z,5.68
2017-12-30T02:51:56.170Z,5.67
2017-12-30T02:52:56.147Z,5.67
2017-12-30T02:53:55.501Z,5.65
2017-12-30T02:54:55.437Z,5.65
2017-12-30T02:55:55.510Z,5.64
2017-12-30T02:56:55.457Z,5.64
2017-12-30T02:57:55.448Z,5.62
2017-12-30T02:58:55.281Z,5.62
2017-12-30T02:59:55.165Z,5.63
2017-12-30T03:00:56.049Z,5.62
2017-12-30T03:01:56.052Z,5.62
2017-12-30T03:02:56.011Z,5.62
2017-12-30T03:03:56.057Z,5.6
2017-12-30T03:04:56.121Z,5.6
2017-12-30T03:05:56.488Z,5.61
2017-12-30T03:06:55.543Z,5.6
2017-12-30T03:07:55.486Z,5.61
2017-12-30T03:08:55.410Z,5.61
2017-12-30T03:09:55.237Z,5.6
2017-12-30T03:10:55.310Z,5.6
2017-12-30T03:11:55.172Z,5.59
2017-12-30T03:12:55.981Z,5.6
2017-12-30T03:13:56.124Z,5.6
2017-12-30T03:14:56.177Z,5.59
2017-12-30T03:15:55.209Z,5.59
2017-12-30T03:16:56.283Z,5.59
2017-12-30T03:17:55.341Z,5.58
2017-12-30T03:18:55.401Z,5.59
2017-12-30T03:19:55.680Z,5.58
2017-12-30T03:20:55.502Z,5.57
2017-12-30T03:21:55.544Z,5.58
2017-12-30T03:22:55.571Z,5.58
2017-12-30T03:23:55.603Z,5.57
2017-12-30T03:24:55.579Z,5.57
2017-12-30T03:25:55.519Z,5.57
2017-12-30T03:26:55.356Z,5.59
2017-12-30T03:27:56.289Z,5.59
2017-12-30T03:28:56.381Z,5.58
2017-12-30T03:29:55.494Z,5.59
2017-12-30T03:30:55.465Z,5.59
2017-12-30T03:31:55.578Z,5.59
2017-12-30T03:32:55.675Z,5.59
2017-12-30T03:33:55.883Z,5.61
2017-12-30T03:34:55.901Z,5.6
2017-12-30T03:35:55.975Z,5.6
2017-12-30T03:36:55.942Z,5.59
2017-12-30T03:37:55.796Z,5.6
2017-12-30T03:38:55.772Z,5.59
2017-12-30T03:39:55.846Z,5.58
2017-12-30T03:40:55.686Z,5.59
2017-12-30T03:41:55.872Z,5.59
2017-12-30T03:42:55.976Z,5.57
2017-12-30T03:43:56.171Z,5.58
2017-12-30T03:44:56.301Z,5.57
2017-12-30T03:45:56.166Z,5.56
2017-12-30T03:46:56.060Z,5.57
2017-12-30T03:47:56.064Z,5.56
2017-12-30T03:48:55.987Z,5.56
2017-12-30T03:49:54.904Z,5.56
2017-12-30T03:52:57.952Z,5.55
2017-12-30T03:53:55.150Z,5.54
2017-12-30T03:54:55.161Z,5.54
2017-12-30T03:55:55.697Z,5.54
2017-12-30T03:56:55.475Z,5.53
2017-12-30T03:57:55.436Z,5.53
2017-12-30T03:58:55.865Z,5.54
2017-12-30T03:59:55.961Z,5.54
2017-12-30T04:00:55.019Z,5.53
2017-12-30T04:01:54.952Z,5.52
2017-12-30T04:02:55.118Z,5.53
2017-12-30T04:03:55.144Z,5.54
2017-12-30T04:04:55.244Z,5.52
2017-12-30T04:05:55.179Z,5.52
2017-12-30T04:06:55.214Z,5.52
2017-12-30T04:07:55.021Z,5.51
2017-12-30T04:08:55.093Z,5.52
2017-12-30T04:09:55.080Z,5.52
2017-12-30T04:10:55.218Z,5.51
2017-12-30T04:11:55.147Z,5.51
2017-12-30T04:12:55.431Z,5.5
2017-12-30T04:13:55.876Z,5.49
2017-12-30T04:14:54.989Z,5.49
2017-12-30T04:15:55.963Z,5.48
2017-12-30T04:16:55.107Z,5.49
2017-12-30T04:17:55.250Z,5.48
2017-12-30T04:18:55.288Z,5.47
2017-12-30T04:19:55.281Z,5.48
2017-12-30T04:20:55.438Z,5.48
2017-12-30T04:21:55.445Z,5.47
2017-12-30T04:22:55.451Z,5.48
2017-12-30T04:23:55.588Z,5.49
2017-12-30T04:24:55.750Z,5.47
2017-12-30T04:25:55.708Z,5.47
2017-12-30T04:26:55.713Z,5.46
2017-12-30T04:27:56.040Z,5.46
2017-12-30T04:28:56.142Z,5.46
2017-12-30T04:29:56.024Z,5.47
2017-12-30T04:30:56.053Z,5.48
2017-12-30T04:31:56.204Z,5.49
2017-12-30T04:32:55.443Z,5.47
2017-12-30T04:33:55.381Z,5.46
2017-12-30T04:34:55.296Z,5.47
2017-12-30T04:35:55.216Z,5.48
2017-12-30T04:36:55.252Z,5.47
2017-12-30T04:37:55.361Z,5.48
2017-12-30T04:38:55.305Z,5.48
2017-12-30T04:39:56.323Z,5.47
2017-12-30T04:40:55.393Z,5.49
2017-12-30T04:41:55.307Z,5.48
2017-12-30T04:42:56.208Z,5.48
2017-12-30T04:43:55.279Z,5.48
2017-12-30T04:44:55.220Z,5.49
2017-12-30T04:45:56.160Z,5.48
2017-12-30T04:46:55.366Z,5.49
2017-12-30T04:47:55.357Z,5.49
2017-12-30T04:48:55.333Z,5.49
2017-12-30T04:49:56.207Z,5.5
2017-12-30T04:50:56.346Z,5.5
2017-12-30T04:51:55.377Z,5.49
2017-12-30T04:52:56.348Z,5.48
2017-12-30T04:53:55.438Z,5.5
2017-12-30T04:54:55.453Z,5.5
2017-12-30T04:55:55.458Z,5.49
2017-12-30T04:56:56.097Z,5.5
2017-12-30T04:57:55.988Z,5.5
2017-12-30T04:58:56.080Z,5.5
2017-12-30T04:59:56.304Z,5.51
2017-12-30T05:00:55.385Z,5.51
2017-12-30T05:01:55.234Z,5.5
2017-12-30T05:02:56.064Z,5.5
2017-12-30T05:04:04.719Z,5.49
2017-12-30T05:04:55.930Z,5.5
2017-12-30T05:05:55.853Z,5.49
2017-12-30T05:06:55.931Z,5.51
2017-12-30T05:07:55.894Z,5.51
2017-12-30T05:08:55.950Z,5.49
2017-12-30T05:09:56.034Z,5.52
2017-12-30T05:10:56.313Z,5.53
2017-12-30T05:11:55.411Z,5.53
2017-12-30T05:12:55.460Z,5.53
2017-12-30T05:13:55.589Z,5.52
2017-12-30T05:14:55.534Z,5.52
2017-12-30T05:15:55.474Z,5.54
2017-12-30T05:16:55.377Z,5.55
2017-12-30T05:17:55.370Z,5.55
2017-12-30T05:18:55.335Z,5.56
2017-12-30T05:19:55.316Z,5.55
2017-12-30T05:20:56.345Z,5.57
2017-12-30T05:21:55.447Z,5.53
2017-12-30T05:22:55.465Z,5.55
2017-12-30T05:23:55.431Z,5.56
2017-12-30T05:24:55.317Z,5.56
2017-12-30T05:25:55.395Z,5.56
2017-12-30T05:26:55.424Z,5.56
2017-12-30T05:27:55.582Z,5.57
2017-12-30T05:28:55.783Z,5.58
2017-12-30T05:29:55.790Z,5.58
2017-12-30T05:30:55.605Z,5.58
2017-12-30T05:31:55.424Z,5.59
2017-12-30T05:32:56.200Z,5.6
2017-12-30T05:33:56.549Z,5.6
2017-12-30T05:34:55.553Z,5.61
2017-12-30T05:35:55.427Z,5.61
2017-12-30T05:36:55.384Z,5.61
2017-12-30T05:37:56.330Z,5.61
2017-12-30T05:38:55.438Z,5.62
2017-12-30T05:39:55.413Z,5.62
2017-12-30T05:40:55.395Z,5.62
2017-12-30T05:41:55.273Z,5.62
2017-12-30T05:42:56.273Z,5.63
2017-12-30T05:43:55.401Z,5.66
2017-12-30T05:44:55.500Z,5.65
2017-12-30T05:45:55.361Z,5.66
2017-12-30T05:46:56.211Z,5.66
2017-12-30T05:47:56.327Z,5.66
2017-12-30T05:48:55.483Z,5.67
2017-12-30T05:49:55.552Z,5.67
2017-12-30T05:50:55.583Z,5.67
2017-12-30T05:51:55.554Z,5.67
2017-12-30T05:52:55.501Z,5.69
2017-12-30T05:53:55.442Z,5.69
2017-12-30T05:54:54.604Z,5.69
2017-12-30T05:55:55.595Z,5.69
2017-12-30T05:56:55.526Z,5.71
2017-12-30T05:57:55.406Z,5.7
2017-12-30T05:58:55.280Z,5.7
2017-12-30T05:59:55.035Z,5.72
2017-12-30T06:00:54.941Z,5.71
2017-12-30T06:01:54.939Z,5.72
2017-12-30T06:02:54.927Z,5.71
2017-12-30T06:03:54.897Z,5.72
2017-12-30T06:04:54.863Z,5.73
2017-12-30T06:05:54.844Z,5.73
2017-12-30T06:06:55.048Z,5.73
2017-12-30T06:07:55.229Z,5.75
2017-12-30T06:08:55.473Z,5.76
2017-12-30T06:09:55.571Z,5.76
2017-12-30T06:10:54.998Z,5.77
2017-12-30T06:11:55.027Z,5.78
2017-12-30T06:12:55.135Z,5.78
2017-12-30T06:13:55.203Z,5.8
2017-12-30T06:14:55.275Z,5.81
2017-12-30T06:15:55.222Z,5.82
2017-12-30T06:16:55.184Z,5.84
2017-12-30T06:17:55.117Z,5.82
2017-12-30T06:18:55.095Z,5.84
2017-12-30T06:19:54.998Z,5.86
2017-12-30T06:20:55.168Z,5.86
2017-12-30T06:21:55.341Z,5.86
2017-12-30T06:22:54.502Z,5.88
2017-12-30T06:23:55.505Z,5.87
2017-12-30T06:24:54.553Z,5.87
2017-12-30T06:25:54.678Z,5.87
2017-12-30T06:26:55.078Z,5.88
2017-12-30T06:27:55.115Z,5.89
2017-12-30T06:28:55.042Z,5.89
2017-12-30T06:29:55.101Z,5.89
2017-12-30T06:30:55.054Z,5.89
2017-12-30T06:31:54.933Z,5.87
2017-12-30T06:32:55.170Z,5.89
2017-12-30T06:33:55.369Z,5.88
2017-12-30T06:34:55.542Z,5.89
2017-12-30T06:35:54.576Z,5.89
2017-12-30T06:36:54.544Z,5.9
2017-12-30T06:37:54.735Z,5.91
2017-12-30T06:38:54.821Z,5.89
2017-12-30T06:39:55.049Z,5.89
2017-12-30T06:40:54.978Z,5.9
2017-12-30T06:41:55.074Z,5.89
2017-12-30T06:42:54.956Z,5.91
2017-12-30T06:43:54.851Z,5.89
2017-12-30T06:44:54.759Z,5.91
2017-12-30T06:45:54.732Z,5.93
2017-12-30T06:46:54.736Z,5.93
2017-12-30T06:47:54.817Z,5.92
2017-12-30T06:48:54.739Z,5.94
2017-12-30T06:49:54.745Z,5.94
2017-12-30T06:50:54.931Z,5.95
2017-12-30T06:51:54.997Z,5.94
2017-12-30T06:52:54.968Z,5.92
2017-12-30T06:53:54.944Z,5.92
2017-12-30T06:54:55.982Z,5.93
2017-12-30T06:55:54.988Z,5.93
2017-12-30T06:56:56.070Z,5.93
2017-12-30T06:57:55.273Z,5.94
2017-12-30T06:58:55.228Z,5.93
2017-12-30T06:59:55.335Z,5.94
2017-12-30T07:00:55.169Z,5.94
2017-12-30T07:01:55.207Z,5.95
2017-12-30T07:02:55.036Z,5.95
2017-12-30T07:03:55.995Z,5.94
2017-12-30T07:04:55.019Z,5.95
2017-12-30T07:05:55.894Z,5.96
2017-12-30T07:06:56.015Z,5.94
2017-12-30T07:07:55.265Z,5.94
2017-12-30T07:08:55.072Z,5.94
2017-12-30T07:09:55.236Z,5.94
2017-12-30T07:10:55.626Z,5.93
2017-12-30T07:13:55.704Z,5.94
2017-12-30T07:14:55.850Z,5.95
2017-12-30T07:15:56.011Z,5.96
2017-12-30T07:16:56.719Z,5.96
2017-12-30T07:17:55.620Z,5.96
2017-12-30T07:18:55.719Z,5.95
2017-12-30T07:19:55.821Z,5.95
2017-12-30T07:20:55.761Z,5.95
2017-12-30T07:21:55.920Z,5.96
2017-12-30T07:22:55.833Z,5.97
2017-12-30T07:23:55.770Z,5.95
2017-12-30T07:24:55.880Z,5.96
2017-12-30T07:25:55.219Z,5.95
2017-12-30T07:26:55.281Z,5.95
2017-12-30T07:27:55.475Z,5.95
2017-12-30T07:28:55.000Z,5.95
2017-12-30T07:29:55.861Z,5.98
2017-12-30T07:30:55.901Z,5.96
2017-12-30T07:31:56.033Z,5.97
2017-12-30T07:32:55.014Z,5.96
2017-12-30T07:33:54.929Z,6
2017-12-30T07:34:55.896Z,5.99
2017-12-30T07:35:54.884Z,6.01
2017-12-30T07:36:55.924Z,5.98
2017-12-30T07:37:54.907Z,5.98
2017-12-30T07:38:55.810Z,5.99
2017-12-30T07:39:55.816Z,6
2017-12-30T07:40:55.729Z,5.98
2017-12-30T07:41:55.791Z,5.96
2017-12-30T07:42:55.896Z,5.99
2017-12-30T07:43:55.064Z,5.98
2017-12-30T07:44:54.903Z,5.96
2017-12-30T07:45:55.832Z,5.99
2017-12-30T07:48:03.272Z,5.98
2017-12-30T07:48:55.225Z,5.99
2017-12-30T07:49:55.272Z,5.97
2017-12-30T07:50:55.196Z,5.98
2017-12-30T07:51:55.102Z,6
2017-12-30T07:52:55.176Z,6.03
2017-12-30T07:53:55.367Z,6.03
2017-12-30T07:54:56.220Z,6.05
2017-12-30T07:55:56.079Z,6.02
2017-12-30T07:56:55.972Z,6.04
2017-12-30T07:57:56.000Z,6.04
2017-12-30T07:58:56.003Z,6.01
2017-12-30T07:59:56.100Z,6.02
2017-12-30T08:00:56.131Z,6.03
2017-12-30T08:01:56.068Z,6.03
2017-12-30T08:02:55.981Z,6.02
2017-12-30T08:03:56.220Z,6
2017-12-30T08:04:56.185Z,5.99
2017-12-30T08:05:56.246Z,5.98
2017-12-30T08:06:56.116Z,5.95
2017-12-30T08:07:56.110Z,5.94
2017-12-30T08:08:56.177Z,5.94
2017-12-30T08:09:56.403Z,5.93
2017-12-30T08:10:55.516Z,5.91
2017-12-30T08:11:55.524Z,5.91
2017-12-30T08:12:55.648Z,5.9
2017-12-30T08:13:55.733Z,5.89
2017-12-30T08:14:55.789Z,5.9
2017-12-30T08:15:55.795Z,5.89
2017-12-30T08:16:55.808Z,5.89
2017-12-30T08:17:55.813Z,5.89
2017-12-30T08:18:55.978Z,5.87
2017-12-30T08:19:55.857Z,5.86
2017-12-30T08:20:55.864Z,5.85
2017-12-30T08:21:55.978Z,5.87
2017-12-30T08:22:56.209Z,5.86
2017-12-30T08:23:56.357Z,5.86
2017-12-30T08:24:55.326Z,5.85
2017-12-30T08:25:56.229Z,5.87
2017-12-30T08:26:56.386Z,5.85
2017-12-30T08:27:55.412Z,5.86
2017-12-30T08:28:56.131Z,5.86
2017-12-30T08:29:55.924Z,5.85
2017-12-30T08:30:55.843Z,5.86
2017-12-30T08:31:55.936Z,5.86
2017-12-30T08:32:55.981Z,5.87
2017-12-30T08:33:56.144Z,5.86
2017-12-30T08:34:56.320Z,5.87
2017-12-30T08:35:55.491Z,5.86
2017-12-30T08:36:55.665Z,5.87
2017-12-30T08:37:55.696Z,5.87
2017-12-30T08:38:55.884Z,5.87
2017-12-30T08:39:55.958Z,5.87
2017-12-30T08:40:56.127Z,5.86
2017-12-30T08:41:56.223Z,5.88
2017-12-30T08:43:58.139Z,5.9
2017-12-30T08:44:56.134Z,5.88
2017-12-30T08:45:55.382Z,5.87
2017-12-30T08:46:56.477Z,5.88
2017-12-30T08:47:55.425Z,5.86
2017-12-30T08:48:56.412Z,5.88
2017-12-30T08:49:55.742Z,5.85
2017-12-30T08:50:55.749Z,5.85
2017-12-30T08:51:55.847Z,5.9
2017-12-30T08:52:55.857Z,5.88
2017-12-30T08:53:55.983Z,5.9
2017-12-30T08:54:56.283Z,5.89
2017-12-30T08:55:55.527Z,5.89
2017-12-30T08:56:55.470Z,5.9
2017-12-30T08:57:55.608Z,5.93
2017-12-30T08:58:55.594Z,5.9
2017-12-30T08:59:55.678Z,5.88
2017-12-30T09:00:55.900Z,5.93
2017-12-30T09:01:54.878Z,5.92
2017-12-30T09:02:55.788Z,5.92
2017-12-30T09:03:55.852Z,5.91
2017-12-30T09:04:55.648Z,5.92
2017-12-30T09:05:55.733Z,5.93
2017-12-30T09:06:55.769Z,5.93
2017-12-30T09:07:56.019Z,5.93
2017-12-30T09:08:55.146Z,5.96
2017-12-30T09:09:55.244Z,5.96
2017-12-30T09:10:55.798Z,5.96
2017-12-30T09:11:55.757Z,5.95
2017-12-30T09:12:55.994Z,5.96
2017-12-30T09:13:55.173Z,5.97
2017-12-30T09:14:55.165Z,5.96
2017-12-30T09:15:55.724Z,5.97
2017-12-30T09:16:55.719Z,5.97
2017-12-30T09:17:55.826Z,5.99
2017-12-30T09:18:55.809Z,5.99
2017-12-30T09:19:55.151Z,6
2017-12-30T09:20:55.462Z,5.99
2017-12-30T09:21:55.649Z,6
2017-12-30T09:22:55.761Z,6
2017-12-30T09:24:55.410Z,6.03
2017-12-30T09:25:55.565Z,6.02
2017-12-30T09:26:54.710Z,6.04
2017-12-30T09:27:54.742Z,6.04
2017-12-30T09:28:54.875Z,6.03
2017-12-30T09:29:54.681Z,6.05
2017-12-30T09:30:54.663Z,6.03
2017-12-30T09:31:54.681Z,6.01
2017-12-30T09:32:54.716Z,6.05
2017-12-30T09:33:54.756Z,6.05
2017-12-30T09:34:55.040Z,6.06
2017-12-30T09:35:55.039Z,6.07
2017-12-30T09:36:55.037Z,6.06
2017-12-30T09:37:55.082Z,6.07
2017-12-30T09:38:55.306Z,6.08
2017-12-30T09:39:55.429Z,6.09
2017-12-30T09:40:54.978Z,6.1
2017-12-30T09:41:54.847Z,6.09
2017-12-30T09:42:54.987Z,6.11
2017-12-30T09:43:55.003Z,6.1
2017-12-30T09:44:55.063Z,6.07
2017-12-30T09:45:55.157Z,6.12
2017-12-30T09:46:55.216Z,6.13
2017-12-30T09:47:55.139Z,6.13
2017-12-30T09:48:55.148Z,6.12
2017-12-30T09:49:54.956Z,6.15
2017-12-30T09:50:54.982Z,6.14
2017-12-30T09:51:54.922Z,6.15
2017-12-30T09:52:55.041Z,6.16
2017-12-30T09:53:55.297Z,6.14
2017-12-30T09:54:55.492Z,6.16
2017-12-30T09:55:55.425Z,6.18
2017-12-30T09:56:55.453Z,6.19
2017-12-30T09:57:55.398Z,6.18
2017-12-30T09:58:55.646Z,6.2
2017-12-30T09:59:55.587Z,6.19
2017-12-30T10:00:55.660Z,6.19
2017-12-30T10:01:55.578Z,6.21
2017-12-30T10:02:55.568Z,6.21
2017-12-30T10:03:55.467Z,6.22
2017-12-30T10:04:56.503Z,6.2
2017-12-30T10:05:55.453Z,6.22
2017-12-30T10:06:56.586Z,6.22
2017-12-30T10:07:55.668Z,6.24
2017-12-30T10:08:55.650Z,6.23
2017-12-30T10:09:55.584Z,6.2
2017-12-30T10:10:55.534Z,6.22
2017-12-30T10:11:55.527Z,6.26
2017-12-30T10:12:55.558Z,6.23
2017-12-30T10:13:55.612Z,6.24
2017-12-30T10:14:55.616Z,6.25
2017-12-30T10:15:55.836Z,6.23
2017-12-30T10:16:55.832Z,6.26
2017-12-30T10:17:55.976Z,6.28
2017-12-30T10:18:56.007Z,6.27
2017-12-30T10:19:56.003Z,6.28
2017-12-30T10:20:56.437Z,6.27
2017-12-30T10:21:55.611Z,6.28
2017-12-30T10:22:55.605Z,6.29
2017-12-30T10:23:56.922Z,6.29
2017-12-30T10:24:56.075Z,6.29
2017-12-30T10:25:56.296Z,6.29
2017-12-30T10:26:55.493Z,6.32
2017-12-30T10:27:55.381Z,6.32
2017-12-30T10:28:55.459Z,6.31
2017-12-30T10:29:56.276Z,6.29
2017-12-30T10:30:56.451Z,6.32
2017-12-30T10:31:55.662Z,6.34
2017-12-30T10:32:55.635Z,6.36
2017-12-30T10:33:55.685Z,6.4
2017-12-30T10:34:55.941Z,6.39
2017-12-30T10:35:55.843Z,6.42
2017-12-30T10:36:56.086Z,6.44
2017-12-30T10:37:56.111Z,6.41
2017-12-30T10:38:56.041Z,6.4
2017-12-30T10:39:56.050Z,6.43
2017-12-30T10:40:57.835Z,6.4
2017-12-30T10:41:56.051Z,6.4
2017-12-30T10:42:56.133Z,6.39
2017-12-30T10:43:56.366Z,6.43
2017-12-30T10:44:56.355Z,6.38
2017-12-30T10:45:58.951Z,6.37
2017-12-30T10:46:56.104Z,6.38
2017-12-30T10:47:56.216Z,6.43
2017-12-30T10:48:29.889Z,6.41
2017-12-30T10:49:29.894Z,6.48
2017-12-30T10:50:30.143Z,6.47
2017-12-30T10:51:30.089Z,6.45
2017-12-30T10:52:30.228Z,6.46
2017-12-30T10:53:30.377Z,6.51
2017-12-30T10:54:29.664Z,6.46
2017-12-30T10:55:29.779Z,6.5
2017-12-30T10:56:30.053Z,6.48
2017-12-30T10:57:30.082Z,6.48
2017-12-30T10:58:30.225Z,6.46
2017-12-30T10:59:30.143Z,6.46
2017-12-30T11:00:30.087Z,6.53
2017-12-30T11:01:30.137Z,6.52
2017-12-30T11:02:30.325Z,6.56
2017-12-30T11:03:29.407Z,6.58
2017-12-30T11:04:29.311Z,6.65
2017-12-30T11:05:29.112Z,6.65
2017-12-30T11:06:30.204Z,6.64
2017-12-30T11:07:30.072Z,6.66
2017-12-30T11:08:30.277Z,6.63
2017-12-30T11:09:29.397Z,6.61
2017-12-30T11:10:29.514Z,6.63
2017-12-30T11:11:31.834Z,6.68
2017-12-30T11:12:29.713Z,6.61
2017-12-30T11:13:29.666Z,6.64
2017-12-30T11:14:29.572Z,6.63
2017-12-30T11:15:29.473Z,6.67
2017-12-30T11:16:29.548Z,6.67
2017-12-30T11:17:29.466Z,6.64
2017-12-30T11:18:29.600Z,6.72
2017-12-30T11:19:28.905Z,6.76
2017-12-30T11:20:28.902Z,6.73
2017-12-30T11:21:28.774Z,6.73
2017-12-30T11:22:28.749Z,6.69
2017-12-30T11:23:28.800Z,6.71
2017-12-30T11:24:29.087Z,6.72
2017-12-30T11:25:29.314Z,6.77
2017-12-30T11:26:29.376Z,6.8
2017-12-30T11:27:29.456Z,6.87
2017-12-30T11:28:29.394Z,6.83
2017-12-30T11:29:29.472Z,6.82
2017-12-30T11:30:28.731Z,6.86
2017-12-30T11:31:28.727Z,6.9
2017-12-30T11:32:28.578Z,6.9
2017-12-30T11:33:29.582Z,6.93
2017-12-30T11:34:28.666Z,6.95
2017-12-30T11:35:28.596Z,6.94
2017-12-30T11:36:28.858Z,6.96
2017-12-30T11:37:28.796Z,6.97
2017-12-30T11:38:28.752Z,6.96
2017-12-30T11:39:28.635Z,7
2017-12-30T11:40:28.701Z,6.97
2017-12-30T11:41:28.685Z,7.06
2017-12-30T11:42:28.769Z,7.06
2017-12-30T11:43:28.822Z,7.05
2017-12-30T11:44:28.884Z,7.09
2017-12-30T11:45:28.864Z,7.11
2017-12-30T11:46:29.246Z,7.1
2017-12-30T11:47:29.288Z,7.14
2017-12-30T11:48:29.324Z,7.12
2017-12-30T11:49:29.405Z,7.11
2017-12-30T11:50:29.621Z,7.11
2017-12-30T11:51:29.604Z,7.1
2017-12-30T11:52:29.678Z,7.11
2017-12-30T11:53:29.552Z,7.13
2017-12-30T11:54:29.630Z,7.17
2017-12-30T11:55:29.828Z,7.17
2017-12-30T11:56:29.828Z,7.19
2017-12-30T11:57:29.825Z,7.2
2017-12-30T11:58:29.508Z,7.26
2017-12-30T11:59:29.660Z,7.23
2017-12-30T12:00:29.599Z,7.24
2017-12-30T12:01:29.459Z,7.22
2017-12-30T12:02:29.599Z,7.24
2017-12-30T12:03:29.565Z,7.27
2017-12-30T12:04:29.667Z,7.34
2017-12-30T12:05:30.066Z,7.33
2017-12-30T12:06:30.251Z,7.32
2017-12-30T12:07:30.261Z,7.35
2017-12-30T12:08:30.179Z,7.38
2017-12-30T12:09:30.148Z,7.35
2017-12-30T12:10:30.193Z,7.38
2017-12-30T12:11:31.047Z,7.36
2017-12-30T12:12:58.356Z,7.4
2017-12-30T12:13:29.442Z,7.41
2017-12-30T12:14:29.402Z,7.38
2017-12-30T12:15:29.561Z,7.42
2017-12-30T12:16:29.628Z,7.41
2017-12-30T12:17:29.851Z,7.46
2017-12-30T12:18:29.859Z,7.5
2017-12-30T12:19:29.796Z,7.51
2017-12-30T12:20:29.640Z,7.52
2017-12-30T12:21:29.616Z,7.5
2017-12-30T12:22:29.826Z,7.5
2017-12-30T12:23:29.818Z,7.56
2017-12-30T12:24:29.666Z,7.56
2017-12-30T12:25:29.591Z,7.55
2017-12-30T12:26:29.406Z,7.59
2017-12-30T12:27:29.416Z,7.56
2017-12-30T12:28:29.247Z,7.59
2017-12-30T12:29:29.190Z,7.61
2017-12-30T12:30:29.943Z,7.63
2017-12-30T12:31:29.857Z,7.7
2017-12-30T12:32:29.923Z,7.71
2017-12-30T12:33:29.110Z,7.72
2017-12-30T12:34:28.927Z,7.74
2017-12-30T12:35:29.786Z,7.76
2017-12-30T12:37:29.355Z,7.75
2017-12-30T12:38:30.100Z,7.77
2017-12-30T12:39:29.667Z,7.75
2017-12-30T12:40:29.990Z,7.78
2017-12-30T12:41:29.612Z,7.79
2017-12-30T12:42:29.691Z,7.86
2017-12-30T12:43:30.130Z,7.85
2017-12-30T12:44:29.790Z,7.84
2017-12-30T12:45:30.047Z,7.82
2017-12-30T12:46:29.643Z,7.84
2017-12-30T12:47:29.883Z,7.85
2017-12-30T12:48:29.465Z,7.89
2017-12-30T12:49:29.947Z,7.9
2017-12-30T12:50:29.504Z,7.9
2017-12-30T12:51:29.880Z,7.97
2017-12-30T12:52:30.845Z,7.91
2017-12-30T12:53:29.299Z,7.93
2017-12-30T12:54:30.438Z,7.9
2017-12-30T12:55:29.706Z,7.94
2017-12-30T12:56:29.915Z,7.98
2017-12-30T12:57:30.716Z,7.97
2017-12-30T12:58:30.292Z,7.97
2017-12-30T12:59:29.657Z,8
2017-12-30T13:00:29.911Z,7.97
2017-12-30T13:01:29.970Z,7.94
2017-12-30T13:02:30.294Z,7.96
2017-12-30T13:03:29.786Z,7.99
2017-12-30T13:04:31.840Z,7.98
2017-12-30T13:05:30.210Z,7.97
2017-12-30T13:06:30.336Z,8.01
2017-12-30T13:07:29.735Z,8
2017-12-30T13:08:30.065Z,8
2017-12-30T13:09:30.381Z,8.01
2017-12-30T13:10:29.878Z,8.05
2017-12-30T13:11:29.859Z,8.02
2017-12-30T13:12:29.914Z,7.98
2017-12-30T13:13:29.973Z,7.97
2017-12-30T13:14:30.325Z,8
2017-12-30T13:15:29.707Z,7.98
2017-12-30T13:16:30.038Z,7.99
2017-12-30T13:17:29.437Z,7.98
2017-12-30T13:18:29.695Z,8
2017-12-30T13:19:30.023Z,8.01
2017-12-30T13:20:30.393Z,7.99
2017-12-30T13:21:29.749Z,8.01
2017-12-30T13:22:29.933Z,7.99
2017-12-30T13:23:30.129Z,7.99
2017-12-30T13:24:29.245Z,7.95
2017-12-30T13:25:29.184Z,8.01
2017-12-30T13:26:33.256Z,7.99
2017-12-30T13:27:29.251Z,8.01
2017-12-30T13:28:29.262Z,8.06
2017-12-30T13:29:29.495Z,8.04
2017-12-30T13:30:29.766Z,8.04
2017-12-30T13:31:29.671Z,8.06
2017-12-30T13:32:29.553Z,8.04
2017-12-30T13:33:29.477Z,8.02